createdAt,value
2024-01-30T00:03:12.170Z,16.63
2024-01-30T00:07:14.980Z,13.77
2024-01-30T00:11:18.069Z,15.05
2024-01-30T00:15:20.718Z,15.50
2024-01-30T00:19:24.989Z,15.85
2024-01-30T00:23:27.787Z,14.05
2024-01-30T00:27:30.497Z,14.85
2024-01-30T00:31:33.328Z,16.65
2024-01-30T00:35:37.736Z,13.68
2024-01-30T00:43:43.124Z,13.93
2024-01-30T00:47:46.084Z,14.75
2024-01-30T00:51:50.131Z,12.90
2024-01-30T00:55:52.851Z,14.55
2024-01-30T00:59:55.866Z,14.23
2024-01-30T01:03:59.451Z,13.73
2024-01-30T01:08:03.586Z,14.43
2024-01-30T01:12:07.033Z,13.93
2024-01-30T01:16:09.774Z,15.18
2024-01-30T01:20:12.669Z,14.45
2024-01-30T01:24:16.907Z,14.10
2024-01-30T01:28:19.893Z,14.20
2024-01-30T01:32:22.741Z,13.48
2024-01-30T01:36:25.389Z,13.18
2024-01-30T01:40:29.877Z,13.48
2024-01-30T01:48:35.366Z,13.25
2024-01-30T01:52:38.464Z,12.52
2024-01-30T01:56:43.120Z,12.65
2024-01-30T02:00:45.934Z,14.43
2024-01-30T02:04:48.741Z,11.68
2024-01-30T02:08:51.425Z,13.63
2024-01-30T02:12:55.530Z,13.60
2024-01-30T02:16:58.232Z,13.15
2024-01-30T02:21:03.099Z,13.45
2024-01-30T02:25:08.170Z,13.30
2024-01-30T02:29:10.921Z,13.23
2024-01-30T02:33:13.997Z,13.10
2024-01-30T02:37:16.889Z,14.30
2024-01-30T02:41:20.989Z,13.23
2024-01-30T02:45:23.719Z,13.23
2024-01-30T02:49:26.471Z,13.25
2024-01-30T02:53:29.286Z,13.15
2024-01-30T02:57:33.374Z,13.20
2024-01-30T03:01:44.759Z,12.48
2024-01-30T03:05:47.684Z,11.48
2024-01-30T03:09:50.445Z,13.95
2024-01-30T03:13:54.545Z,12.23
2024-01-30T03:17:57.294Z,11.95
2024-01-30T03:22:00.054Z,15.95
2024-01-30T03:26:02.966Z,13.27
2024-01-30T03:30:08.909Z,13.63
2024-01-30T03:34:11.819Z,12.48
2024-01-30T03:38:14.573Z,12.77
2024-01-30T03:42:17.260Z,11.73
2024-01-30T03:46:21.401Z,11.93
2024-01-30T03:50:24.131Z,11.60
2024-01-30T03:54:26.925Z,11.27
2024-01-30T03:58:29.749Z,11.93
2024-01-30T04:02:33.889Z,15.38
2024-01-30T04:06:36.752Z,12.18
2024-01-30T04:10:39.445Z,11.52
2024-01-30T04:14:42.144Z,11.38
2024-01-30T04:18:46.247Z,14.68
2024-01-30T04:22:49.230Z,11.25
2024-01-30T04:26:51.937Z,13.52
2024-01-30T04:30:54.994Z,12.05
2024-01-30T04:34:59.150Z,13.82
2024-01-30T04:39:01.900Z,10.68
2024-01-30T04:43:04.834Z,11.75
2024-01-30T04:47:09.975Z,11.40
2024-01-30T04:51:14.130Z,12.68
2024-01-30T04:55:18.560Z,10.80
2024-01-30T04:59:22.603Z,14.50
2024-01-30T05:03:25.405Z,11.75
2024-01-30T05:07:29.651Z,11.20
2024-01-30T05:11:32.390Z,11.63
2024-01-30T05:15:35.124Z,10.93
2024-01-30T05:19:38.192Z,10.88
2024-01-30T05:23:42.877Z,12.43
2024-01-30T05:27:45.599Z,12.95
2024-01-30T05:31:48.384Z,11.48
2024-01-30T05:35:51.091Z,11.52
2024-01-30T05:39:55.296Z,12.48
2024-01-30T05:43:58.006Z,11.57
2024-01-30T05:48:00.817Z,12.82
2024-01-30T05:52:04.546Z,13.00
2024-01-30T05:56:09.750Z,12.35
2024-01-30T06:00:13.148Z,13.57
2024-01-30T06:04:16.087Z,13.18
2024-01-30T06:08:19.586Z,13.48
2024-01-30T06:12:23.748Z,12.52
2024-01-30T06:16:30.473Z,14.48
2024-01-30T06:20:33.235Z,17.90
2024-01-30T06:24:36.095Z,16.25
2024-01-30T06:28:40.234Z,13.00
2024-01-30T06:32:43.084Z,12.25
2024-01-30T06:36:45.876Z,12.07
2024-01-30T06:40:48.620Z,13.50
2024-01-30T06:44:52.660Z,13.38
2024-01-30T06:48:55.396Z,17.35
2024-01-30T06:52:58.131Z,12.75
2024-01-30T06:57:00.959Z,14.55
2024-01-30T07:01:05.305Z,16.08
2024-01-30T07:05:08.785Z,14.27
2024-01-30T07:09:11.585Z,14.85
2024-01-30T07:13:14.496Z,14.90
2024-01-30T07:17:18.583Z,13.48
2024-01-30T07:21:22.966Z,14.20
2024-01-30T07:25:27.954Z,13.60
2024-01-30T07:29:31.018Z,14.52
2024-01-30T07:33:35.304Z,14.55
2024-01-30T07:37:38.085Z,19.92
2024-01-30T07:41:40.909Z,20.50
2024-01-30T07:45:43.824Z,16.90
2024-01-30T07:49:49.180Z,16.60
2024-01-30T07:53:51.990Z,16.25
2024-01-30T07:57:54.859Z,15.95
2024-01-30T08:01:57.732Z,17.30
2024-01-30T08:06:01.866Z,15.57
2024-01-30T08:10:05.160Z,16.63
2024-01-30T08:14:08.019Z,16.70
2024-01-30T08:18:11.037Z,27.10
2024-01-30T08:22:15.721Z,21.17
2024-01-30T08:26:18.535Z,20.75
2024-01-30T08:30:21.963Z,17.52
2024-01-30T08:34:24.787Z,16.90
2024-01-30T08:38:30.346Z,26.60
2024-01-30T08:46:36.125Z,25.92
2024-01-30T08:50:38.949Z,28.95
2024-01-30T08:54:43.004Z,20.80
2024-01-30T08:58:45.801Z,22.88
2024-01-30T09:02:48.565Z,27.40
2024-01-30T09:06:51.446Z,26.90
2024-01-30T09:10:56.252Z,30.55
2024-01-30T09:14:59.175Z,27.50
2024-01-30T09:19:02.024Z,26.10
2024-01-30T09:23:04.998Z,25.98
2024-01-30T09:27:09.181Z,23.42
2024-01-30T09:31:12.515Z,29.80
2024-01-30T09:35:15.757Z,25.50
2024-01-30T09:39:20.934Z,27.60
2024-01-30T09:43:27.563Z,27.05
2024-01-30T09:47:30.699Z,30.95
2024-01-30T09:51:33.725Z,26.67
2024-01-30T09:55:37.551Z,29.52
2024-01-30T09:59:43.715Z,31.15
2024-01-30T10:03:46.884Z,28.52
2024-01-30T10:07:55.304Z,28.40
2024-01-30T10:11:58.328Z,25.52
2024-01-30T10:16:04.196Z,26.33
2024-01-30T10:20:07.974Z,23.08
2024-01-30T10:24:13.996Z,23.10
2024-01-30T10:28:16.749Z,23.38
2024-01-30T10:32:22.259Z,24.08
2024-01-30T10:36:30.425Z,21.70
2024-01-30T10:40:33.871Z,19.08
2024-01-30T10:44:40.289Z,16.92
2024-01-30T10:48:46.683Z,17.05
2024-01-30T10:52:49.778Z,14.93
2024-01-30T10:56:53.269Z,13.48
2024-01-30T11:00:57.305Z,14.90
2024-01-30T11:05:17.668Z,14.38
2024-01-30T11:09:20.773Z,14.98
2024-01-30T11:13:28.958Z,13.82
2024-01-30T11:17:45.848Z,12.85
2024-01-30T11:30:25.649Z,11.40
2024-01-30T11:34:35.655Z,12.45
2024-01-30T11:42:46.723Z,11.00
2024-01-30T11:55:01.199Z,8.77
2024-01-30T11:59:12.285Z,9.43
2024-01-30T12:03:15.146Z,9.07
2024-01-30T12:07:18.218Z,9.15
2024-01-30T12:11:22.510Z,9.85
2024-01-30T12:15:27.192Z,9.18
2024-01-30T12:19:30.244Z,8.80
2024-01-30T12:23:33.192Z,9.65
2024-01-30T12:27:47.123Z,8.32
2024-01-30T12:31:51.058Z,8.30
2024-01-30T12:36:01.889Z,7.93
2024-01-30T12:40:08.536Z,7.57
2024-01-30T12:44:27.692Z,7.78
2024-01-30T12:48:31.287Z,8.20
2024-01-30T12:56:37.111Z,8.15
2024-01-30T13:00:56.242Z,7.03
2024-01-30T13:05:09.531Z,7.78
2024-01-30T13:09:14.895Z,7.90
2024-01-30T13:13:37.612Z,8.52
2024-01-30T13:17:50.941Z,8.35
2024-01-30T13:21:54.919Z,8.05
2024-01-30T13:26:08.507Z,8.30
2024-01-30T13:30:11.822Z,9.02
2024-01-30T13:34:17.626Z,9.40
2024-01-30T13:38:20.732Z,10.10
2024-01-30T13:42:24.134Z,10.68
2024-01-30T13:46:27.043Z,9.48
2024-01-30T13:50:54.196Z,9.57
2024-01-30T13:54:58.105Z,10.20
2024-01-30T13:59:02.752Z,9.45
2024-01-30T14:03:08.283Z,10.18
2024-01-30T14:07:28.068Z,9.70
2024-01-30T14:11:30.924Z,9.07
2024-01-30T14:15:34.922Z,8.80
2024-01-30T14:19:38.465Z,9.43
2024-01-30T14:23:54.824Z,9.35
2024-01-30T14:27:57.773Z,9.25
2024-01-30T14:32:00.671Z,9.07
2024-01-30T14:36:03.555Z,9.77
2024-01-30T14:40:09.552Z,9.52
2024-01-30T14:44:12.464Z,9.18
2024-01-30T14:48:15.722Z,8.80
2024-01-30T14:52:18.837Z,9.05
2024-01-30T14:56:23.338Z,8.75
2024-01-30T15:00:32.304Z,8.68
2024-01-30T15:04:36.459Z,8.23
2024-01-30T15:08:51.614Z,8.98
2024-01-30T15:13:15.662Z,8.00
2024-01-30T15:17:22.696Z,8.85
2024-01-30T15:21:29.275Z,7.90
2024-01-30T15:25:32.224Z,9.13
2024-01-30T15:29:37.879Z,8.43
2024-01-30T15:33:40.752Z,8.73
2024-01-30T15:37:43.515Z,9.27
2024-01-30T15:41:47.568Z,7.78
2024-01-30T15:45:51.986Z,7.35
2024-01-30T15:49:54.997Z,6.28
2024-01-30T15:54:08.738Z,5.60
2024-01-30T15:58:14.292Z,5.47
2024-01-30T16:02:19.730Z,6.53
2024-01-30T16:06:41.212Z,6.57
2024-01-30T16:10:45.551Z,8.38
2024-01-30T16:14:48.533Z,12.05
2024-01-30T16:18:52.998Z,7.88
2024-01-30T16:22:56.873Z,13.77
2024-01-30T16:26:59.789Z,10.55
2024-01-30T16:31:05.364Z,10.93
2024-01-30T16:35:09.636Z,6.68
2024-01-30T16:39:26.497Z,7.18
2024-01-30T16:43:29.717Z,5.65
2024-01-30T16:47:33.019Z,5.50
2024-01-30T16:52:06.232Z,5.68
2024-01-30T16:56:10.712Z,5.57
2024-01-30T17:00:22.962Z,6.13
2024-01-30T17:04:28.088Z,6.25
2024-01-30T17:08:32.893Z,7.05
2024-01-30T17:12:40.996Z,7.40
2024-01-30T17:16:54.314Z,6.90
2024-01-30T17:20:59.953Z,7.20
2024-01-30T17:25:17.392Z,6.13
2024-01-30T17:29:20.280Z,6.45
2024-01-30T17:33:26.126Z,6.10
2024-01-30T17:37:39.736Z,6.38
2024-01-30T17:41:44.422Z,6.05
2024-01-30T17:46:10.097Z,6.70
2024-01-30T17:50:13.436Z,5.85
2024-01-30T17:54:16.795Z,5.97
2024-01-30T17:58:21.813Z,6.03
2024-01-30T18:02:25.025Z,5.85
2024-01-30T18:06:29.784Z,6.75
2024-01-30T18:10:34.036Z,6.20
2024-01-30T18:14:42.378Z,6.18
2024-01-30T18:18:53.554Z,6.03
2024-01-30T18:22:58.705Z,5.78
2024-01-30T18:27:01.576Z,7.25
2024-01-30T18:31:06.028Z,6.90
2024-01-30T18:35:09.806Z,7.72
2024-01-30T18:43:16.874Z,6.75
2024-01-30T18:47:21.784Z,6.97
2024-01-30T18:51:24.701Z,7.18
2024-01-30T18:55:31.084Z,6.78
2024-01-30T18:59:34.017Z,7.50
2024-01-30T19:03:38.423Z,7.10
2024-01-30T19:07:41.255Z,7.22
2024-01-30T19:11:45.051Z,6.32
2024-01-30T19:19:59.780Z,6.38
2024-01-30T19:24:02.689Z,6.05
2024-01-30T19:28:05.844Z,6.20
2024-01-30T19:32:09.088Z,7.13
2024-01-30T19:36:13.367Z,6.35
2024-01-30T19:40:16.378Z,6.07
2024-01-30T19:44:26.967Z,6.47
2024-01-30T19:48:30.129Z,7.40
2024-01-30T19:52:35.396Z,6.00
2024-01-30T19:56:52.342Z,6.78
2024-01-30T20:00:55.382Z,7.60
2024-01-30T20:05:18.765Z,7.75
2024-01-30T20:09:24.334Z,7.93
2024-01-30T20:13:29.298Z,6.13
2024-01-30T20:17:36.517Z,6.30
2024-01-30T20:21:39.738Z,6.40
2024-01-30T20:25:44.096Z,7.38
2024-01-30T20:29:46.951Z,7.32
2024-01-30T20:38:24.527Z,6.22
2024-01-30T20:42:30.784Z,6.72
2024-01-30T20:46:33.752Z,6.63
2024-01-30T20:50:41.862Z,8.38
2024-01-30T20:54:44.918Z,7.45
2024-01-30T20:58:49.143Z,7.20
2024-01-30T21:02:52.040Z,6.90
2024-01-30T21:07:09.625Z,7.45
2024-01-30T21:11:19.189Z,7.10
2024-01-30T21:15:23.429Z,7.35
2024-01-30T21:19:26.569Z,8.40
2024-01-30T21:23:29.993Z,10.52
2024-01-30T21:27:34.011Z,9.13
2024-01-30T21:31:41.980Z,7.43
2024-01-30T21:36:02.284Z,8.82
2024-01-30T21:40:07.137Z,10.60
2024-01-30T21:44:20.410Z,9.25
2024-01-30T21:48:24.662Z,8.55
2024-01-30T21:52:27.577Z,8.63
2024-01-30T21:56:30.528Z,7.75
2024-01-30T22:00:59.284Z,9.27
2024-01-30T22:09:18.545Z,8.68
2024-01-30T22:13:29.769Z,11.10
2024-01-30T22:17:33.100Z,11.32
2024-01-30T22:21:37.549Z,12.50
2024-01-30T22:25:48.430Z,11.15
2024-01-30T22:30:10.153Z,10.25
2024-01-30T22:34:13.090Z,9.15
2024-01-30T22:38:17.490Z,8.60
2024-01-30T22:42:20.266Z,7.45
2024-01-30T22:46:23.193Z,8.48
2024-01-30T22:50:26.887Z,7.45
2024-01-30T22:54:31.113Z,7.55
2024-01-30T22:58:34.052Z,6.82
2024-01-30T23:02:36.988Z,6.38
2024-01-30T23:06:39.911Z,5.80
2024-01-30T23:10:44.373Z,6.28
2024-01-30T23:19:05.514Z,6.60
2024-01-30T23:23:09.461Z,6.22
2024-01-30T23:31:16.663Z,6.28
2024-01-30T23:35:19.945Z,5.75
2024-01-30T23:39:23.009Z,6.45
2024-01-30T23:43:30.163Z,6.50
2024-01-30T23:47:33.674Z,5.78
2024-01-30T23:51:36.545Z,7.00
2024-01-30T23:55:39.739Z,6.90
